createdAt,value
2023-03-29T00:01:35.797Z,97304.22
2023-03-29T00:04:06.415Z,97294.00
2023-03-29T00:06:33.970Z,97291.19
2023-03-29T00:09:01.729Z,97289.56
2023-03-29T00:11:28.255Z,97283.53
2023-03-29T00:13:54.860Z,97297.25
2023-03-29T00:16:21.567Z,97296.44
2023-03-29T00:18:48.163Z,97297.63
2023-03-29T00:21:14.760Z,97302.03
2023-03-29T00:23:41.170Z,97293.34
2023-03-29T00:26:08.382Z,97294.72
2023-03-29T00:28:35.400Z,97287.47
2023-03-29T00:31:11.323Z,97295.50
2023-03-29T00:33:38.406Z,97291.88
2023-03-29T00:36:06.025Z,97282.19
2023-03-29T00:38:33.278Z,97282.19
2023-03-29T00:41:00.418Z,97291.06
2023-03-29T00:43:27.533Z,97283.19
2023-03-29T00:45:54.042Z,97262.81
2023-03-29T00:48:24.378Z,97266.00
2023-03-29T00:50:56.169Z,97262.72
2023-03-29T00:53:57.877Z,97268.78
2023-03-29T00:56:29.791Z,97263.22
2023-03-29T00:59:06.047Z,97252.69
2023-03-29T01:01:41.893Z,97257.56
2023-03-29T01:04:18.599Z,97256.31
2023-03-29T01:06:59.153Z,97253.06
2023-03-29T01:09:29.863Z,97251.84
2023-03-29T01:11:59.268Z,97236.09
2023-03-29T01:14:35.226Z,97238.53
2023-03-29T01:17:01.657Z,97243.78
2023-03-29T01:19:34.948Z,97245.38
2023-03-29T01:22:19.279Z,97257.47
2023-03-29T01:25:07.075Z,97257.91
2023-03-29T01:27:33.393Z,97259.13
2023-03-29T01:30:11.480Z,97243.41
2023-03-29T01:32:59.137Z,97242.19
2023-03-29T01:35:44.698Z,97231.69
2023-03-29T01:38:21.612Z,97243.81
2023-03-29T01:40:48.108Z,97241.38
2023-03-29T01:43:31.922Z,97245.78
2023-03-29T01:46:21.738Z,97238.13
2023-03-29T01:48:59.587Z,97223.63
2023-03-29T01:51:35.881Z,97215.16
2023-03-29T01:54:26.506Z,97215.16
2023-03-29T01:56:53.728Z,97211.75
2023-03-29T01:59:23.028Z,97216.00
2023-03-29T02:01:52.975Z,97207.56
2023-03-29T02:04:31.397Z,97207.91
2023-03-29T02:07:00.610Z,97202.03
2023-03-29T02:09:29.292Z,97211.50
2023-03-29T02:11:59.650Z,97212.34
2023-03-29T02:14:26.795Z,97209.09
2023-03-29T02:16:53.601Z,97210.50
2023-03-29T02:19:23.988Z,97207.88
2023-03-29T02:22:01.875Z,97195.78
2023-03-29T02:24:32.307Z,97197.78
2023-03-29T02:27:00.128Z,97198.16
2023-03-29T02:29:27.288Z,97184.78
2023-03-29T02:32:04.717Z,97178.75
2023-03-29T02:34:41.613Z,97179.09
2023-03-29T02:37:12.822Z,97163.34
2023-03-29T02:39:41.027Z,97165.84
2023-03-29T02:42:08.921Z,97158.41
2023-03-29T02:44:40.059Z,97153.56
2023-03-29T02:47:14.159Z,97149.94
2023-03-29T02:49:40.620Z,97139.03
2023-03-29T02:52:12.473Z,97139.44
2023-03-29T02:54:43.311Z,97138.28
2023-03-29T02:57:10.297Z,97131.00
2023-03-29T02:59:38.535Z,97135.19
2023-03-29T03:02:05.459Z,97128.19
2023-03-29T03:04:34.066Z,97121.72
2023-03-29T03:07:00.513Z,97120.09
2023-03-29T03:09:27.401Z,97114.03
2023-03-29T03:11:53.808Z,97110.78
2023-03-29T03:14:22.813Z,97114.34
2023-03-29T03:16:50.030Z,97125.44
2023-03-29T03:19:16.613Z,97120.00
2023-03-29T03:21:43.227Z,97126.78
2023-03-29T03:24:10.283Z,97115.84
2023-03-29T03:26:38.828Z,97127.50
2023-03-29T03:29:05.702Z,97136.41
2023-03-29T03:31:33.533Z,97128.72
2023-03-29T03:34:00.105Z,97132.09
2023-03-29T03:36:29.134Z,97132.91
2023-03-29T03:38:55.578Z,97130.28
2023-03-29T03:41:22.614Z,97116.16
2023-03-29T03:43:49.451Z,97126.66
2023-03-29T03:46:17.082Z,97123.81
2023-03-29T03:48:44.581Z,97122.13
2023-03-29T03:51:11.033Z,97114.03
2023-03-29T03:53:37.922Z,97115.13
2023-03-29T03:56:08.800Z,97114.81
2023-03-29T03:58:38.367Z,97112.50
2023-03-29T04:01:05.905Z,97106.06
2023-03-29T04:03:32.474Z,97102.81
2023-03-29T04:06:03.535Z,97114.53
2023-03-29T04:08:30.234Z,97110.97
2023-03-29T04:10:58.403Z,97105.50
2023-03-29T04:13:26.253Z,97110.53
2023-03-29T04:15:58.786Z,97114.97
2023-03-29T04:18:26.765Z,97110.97
2023-03-29T04:20:53.459Z,97122.72
2023-03-29T04:23:19.967Z,97122.66
2023-03-29T04:25:46.555Z,97118.19
2023-03-29T04:28:13.000Z,97117.91
2023-03-29T04:30:39.839Z,97119.53
2023-03-29T04:33:06.651Z,97131.84
2023-03-29T04:35:33.432Z,97121.97
2023-03-29T04:38:00.155Z,97122.44
2023-03-29T04:40:26.646Z,97117.31
2023-03-29T04:42:54.321Z,97108.41
2023-03-29T04:45:20.801Z,97117.03
2023-03-29T04:47:47.208Z,97117.84
2023-03-29T04:50:13.940Z,97115.44
2023-03-29T04:52:40.946Z,97111.19
2023-03-29T04:55:08.237Z,97113.38
2023-03-29T04:57:34.741Z,97114.19
2023-03-29T05:00:01.375Z,97112.22
2023-03-29T05:02:27.857Z,97115.88
2023-03-29T05:04:54.531Z,97123.53
2023-03-29T05:07:20.947Z,97124.19
2023-03-29T05:09:47.461Z,97119.94
2023-03-29T05:12:13.968Z,97126.66
2023-03-29T05:14:40.572Z,97127.88
2023-03-29T05:17:08.061Z,97124.50
2023-03-29T05:19:35.671Z,97131.47
2023-03-29T05:22:02.338Z,97121.13
2023-03-29T05:24:28.753Z,97125.94
2023-03-29T05:26:55.372Z,97125.47
2023-03-29T05:29:23.472Z,97128.28
2023-03-29T05:31:50.022Z,97122.66
2023-03-29T05:34:16.722Z,97126.66
2023-03-29T05:36:43.481Z,97131.06
2023-03-29T05:39:11.344Z,97120.88
2023-03-29T05:41:37.903Z,97122.72
2023-03-29T05:44:04.387Z,97124.66
2023-03-29T05:46:30.761Z,97124.03
2023-03-29T05:48:57.228Z,97131.59
2023-03-29T05:51:24.623Z,97129.09
2023-03-29T05:53:52.190Z,97128.81
2023-03-29T05:56:19.299Z,97132.19
2023-03-29T05:58:54.438Z,97138.16
2023-03-29T06:01:22.529Z,97145.75
2023-03-29T06:03:49.264Z,97138.31
2023-03-29T06:06:16.675Z,97149.94
2023-03-29T06:08:44.098Z,97144.91
2023-03-29T06:11:13.202Z,97146.31
2023-03-29T06:13:39.698Z,97152.88
2023-03-29T06:16:06.704Z,97145.22
2023-03-29T06:18:33.482Z,97152.09
2023-03-29T06:21:02.794Z,97159.53
2023-03-29T06:23:30.677Z,97167.22
2023-03-29T06:25:57.186Z,97154.38
2023-03-29T06:28:24.142Z,97158.63
2023-03-29T06:30:50.567Z,97156.88
2023-03-29T06:33:17.385Z,97161.41
2023-03-29T06:35:49.006Z,97156.63
2023-03-29T06:38:16.568Z,97152.28
2023-03-29T06:40:44.605Z,97152.50
2023-03-29T06:43:11.258Z,97147.94
2023-03-29T06:45:38.751Z,97140.56
2023-03-29T06:48:07.844Z,97145.59
2023-03-29T06:50:35.373Z,97137.94
2023-03-29T06:53:02.191Z,97140.41
2023-03-29T06:55:28.752Z,97145.69
2023-03-29T06:57:55.444Z,97144.75
2023-03-29T07:00:28.149Z,97144.38
2023-03-29T07:02:56.522Z,97152.97
2023-03-29T07:05:23.942Z,97145.78
2023-03-29T07:08:05.314Z,97149.72
2023-03-29T07:10:38.189Z,97152.31
2023-03-29T07:13:10.505Z,97141.91
2023-03-29T07:15:37.052Z,97140.75
2023-03-29T07:18:04.739Z,97147.84
2023-03-29T07:20:33.625Z,97146.22
2023-03-29T07:23:00.484Z,97144.72
2023-03-29T07:25:27.629Z,97148.03
2023-03-29T07:27:54.273Z,97161.69
2023-03-29T07:30:23.982Z,97156.34
2023-03-29T07:32:52.357Z,97158.00
2023-03-29T07:35:19.045Z,97162.31
2023-03-29T07:37:46.294Z,97165.50
2023-03-29T07:40:18.797Z,97169.56
2023-03-29T07:42:46.068Z,97167.97
2023-03-29T07:45:14.338Z,97163.13
2023-03-29T07:47:41.250Z,97174.81
2023-03-29T07:50:08.816Z,97175.47
2023-03-29T07:52:38.210Z,97180.78
2023-03-29T07:55:06.576Z,97181.81
2023-03-29T07:57:32.974Z,97184.41
2023-03-29T07:59:59.718Z,97180.69
2023-03-29T08:02:27.302Z,97182.84
2023-03-29T08:04:54.564Z,97194.28
2023-03-29T08:07:21.369Z,97195.00
2023-03-29T08:09:48.584Z,97190.66
2023-03-29T08:12:15.658Z,97187.59
2023-03-29T08:14:42.039Z,97190.22
2023-03-29T08:17:08.787Z,97185.56
2023-03-29T08:19:35.741Z,97194.38
2023-03-29T08:22:02.688Z,97189.06
2023-03-29T08:24:29.126Z,97184.59
2023-03-29T08:26:56.052Z,97194.66
2023-03-29T08:29:22.511Z,97190.84
2023-03-29T08:31:49.265Z,97199.34
2023-03-29T08:34:16.149Z,97200.75
2023-03-29T08:36:42.587Z,97193.75
2023-03-29T08:39:09.913Z,97198.06
2023-03-29T08:42:00.923Z,97194.44
2023-03-29T08:44:42.792Z,97196.94
2023-03-29T08:47:21.062Z,97193.28
2023-03-29T08:49:53.142Z,97188.72
2023-03-29T08:52:48.369Z,97186.34
2023-03-29T08:55:26.022Z,97180.22
2023-03-29T08:57:53.192Z,97177.38
2023-03-29T09:00:36.366Z,97182.97
2023-03-29T09:03:08.803Z,97190.06
2023-03-29T09:05:42.047Z,97180.00
2023-03-29T09:08:17.470Z,97182.69
2023-03-29T09:10:59.163Z,97190.22
2023-03-29T09:13:56.939Z,97186.63
2023-03-29T09:16:56.165Z,97186.25
2023-03-29T09:19:31.268Z,97193.72
2023-03-29T09:22:17.150Z,97190.09
2023-03-29T09:25:05.375Z,97185.16
2023-03-29T09:27:41.647Z,97174.88
2023-03-29T09:30:26.329Z,97171.00
2023-03-29T09:32:56.748Z,97160.16
2023-03-29T09:35:31.033Z,97159.63
2023-03-29T09:37:57.829Z,97163.34
2023-03-29T09:40:32.592Z,97161.72
2023-03-29T09:43:04.213Z,97163.84
2023-03-29T09:45:31.368Z,97159.78
2023-03-29T09:48:06.332Z,97150.81
2023-03-29T09:50:37.290Z,97153.94
2023-03-29T09:53:05.029Z,97147.03
2023-03-29T09:55:37.094Z,97145.78
2023-03-29T09:58:24.471Z,97142.94
2023-03-29T10:00:51.037Z,97146.19
2023-03-29T10:03:23.045Z,97137.97
2023-03-29T10:05:53.272Z,97141.31
2023-03-29T10:08:27.339Z,97140.59
2023-03-29T10:10:56.333Z,97138.59
2023-03-29T10:13:32.995Z,97142.34
2023-03-29T10:16:17.078Z,97143.94
2023-03-29T10:18:43.922Z,97158.47
2023-03-29T10:21:21.054Z,97138.50
2023-03-29T10:23:49.873Z,97136.63
2023-03-29T10:26:24.787Z,97141.16
2023-03-29T10:28:54.628Z,97131.88
2023-03-29T10:31:22.658Z,97121.78
2023-03-29T10:33:55.876Z,97124.81
2023-03-29T10:36:25.745Z,97123.63
2023-03-29T10:38:56.126Z,97111.59
2023-03-29T10:41:23.306Z,97118.69
2023-03-29T10:43:51.162Z,97107.53
2023-03-29T10:46:28.219Z,97107.38
2023-03-29T10:49:10.486Z,97098.44
2023-03-29T10:51:37.598Z,97101.94
2023-03-29T10:54:05.305Z,97113.75
2023-03-29T10:56:40.313Z,97113.41
2023-03-29T10:59:27.299Z,97099.88
2023-03-29T11:02:15.643Z,97101.47
2023-03-29T11:05:24.441Z,97095.63
2023-03-29T11:08:49.526Z,97097.44
2023-03-29T11:11:46.800Z,97095.97
2023-03-29T11:14:28.463Z,97090.72
2023-03-29T11:17:12.140Z,97086.84
2023-03-29T11:20:04.938Z,97091.59
2023-03-29T11:22:44.726Z,97090.44
2023-03-29T11:25:31.044Z,97087.28
2023-03-29T11:28:03.215Z,97100.56
2023-03-29T11:30:35.219Z,97101.72
2023-03-29T11:33:02.943Z,97104.28
2023-03-29T11:35:34.442Z,97109.06
2023-03-29T11:38:37.505Z,97098.38
2023-03-29T11:41:25.679Z,97106.19
2023-03-29T11:43:59.636Z,97106.72
2023-03-29T11:46:40.032Z,97105.56
2023-03-29T11:49:15.287Z,97102.56
2023-03-29T11:51:51.964Z,97103.28
2023-03-29T11:54:26.127Z,97102.97
2023-03-29T11:57:05.774Z,97092.84
2023-03-29T11:59:52.253Z,97094.13
2023-03-29T12:02:46.346Z,97095.47
2023-03-29T12:05:18.944Z,97081.97
2023-03-29T12:08:05.640Z,97070.94
2023-03-29T12:10:43.123Z,97085.06
2023-03-29T12:13:18.985Z,97084.34
2023-03-29T12:15:56.781Z,97085.84
2023-03-29T12:18:36.786Z,97083.06
2023-03-29T12:21:11.698Z,97087.81
2023-03-29T12:23:38.580Z,97086.50
2023-03-29T12:26:42.138Z,97078.78
2023-03-29T12:29:22.243Z,97081.41
2023-03-29T12:32:00.338Z,97087.53
2023-03-29T12:34:48.204Z,97086.25
2023-03-29T12:37:32.267Z,97086.53
2023-03-29T12:40:15.124Z,97079.34
2023-03-29T12:43:00.162Z,97083.50
2023-03-29T12:45:34.978Z,97075.50
2023-03-29T12:48:01.853Z,97060.41
2023-03-29T12:50:33.382Z,97068.63
2023-03-29T12:53:43.714Z,97061.72
2023-03-29T12:56:23.643Z,97064.03
2023-03-29T12:59:07.580Z,97057.00
2023-03-29T13:01:37.013Z,97065.25
2023-03-29T13:04:17.525Z,97054.91
2023-03-29T13:06:46.809Z,97052.31
2023-03-29T13:09:22.190Z,97056.13
2023-03-29T13:11:58.477Z,97055.38
2023-03-29T13:14:31.710Z,97045.94
2023-03-29T13:17:15.529Z,97048.00
2023-03-29T13:19:54.371Z,97060.53
2023-03-29T13:22:26.748Z,97050.38
2023-03-29T13:25:22.203Z,97055.75
2023-03-29T13:27:58.193Z,97055.75
2023-03-29T13:30:41.528Z,97062.53
2023-03-29T13:33:17.745Z,97058.88
2023-03-29T13:35:53.641Z,97071.03
2023-03-29T13:38:28.837Z,97059.63
2023-03-29T13:41:03.913Z,97060.66
2023-03-29T13:43:32.399Z,97060.00
2023-03-29T13:45:58.754Z,97062.78
2023-03-29T13:48:29.838Z,97057.16
2023-03-29T13:51:19.337Z,97063.72
2023-03-29T13:53:51.785Z,97060.72
2023-03-29T13:56:27.045Z,97054.28
2023-03-29T13:59:20.795Z,97053.06
2023-03-29T14:01:54.522Z,97062.19
2023-03-29T14:04:24.857Z,97061.75
2023-03-29T14:06:54.882Z,97054.84
2023-03-29T14:09:26.039Z,97061.28
2023-03-29T14:11:52.504Z,97066.34
2023-03-29T14:14:24.678Z,97054.69
2023-03-29T14:16:51.238Z,97046.19
2023-03-29T14:19:21.509Z,97032.31
2023-03-29T14:21:51.217Z,97041.31
2023-03-29T14:24:21.992Z,97029.66
2023-03-29T14:26:48.578Z,97025.34
2023-03-29T14:29:15.760Z,97026.88
2023-03-29T14:31:42.977Z,97030.25
2023-03-29T14:34:15.735Z,97023.50
2023-03-29T14:36:45.478Z,97021.78
2023-03-29T14:39:23.368Z,97035.09
2023-03-29T14:41:52.688Z,97034.00
2023-03-29T14:44:21.926Z,97019.44
2023-03-29T14:46:48.489Z,97012.25
2023-03-29T14:49:17.381Z,97008.03
2023-03-29T14:51:46.246Z,97017.13
2023-03-29T14:54:22.667Z,97012.66
2023-03-29T14:56:50.101Z,96997.78
2023-03-29T14:59:23.203Z,96996.19
2023-03-29T15:01:49.772Z,97000.31
2023-03-29T15:04:16.297Z,97000.16
2023-03-29T15:06:44.987Z,96998.63
2023-03-29T15:09:17.759Z,96994.03
2023-03-29T15:11:52.140Z,96976.31
2023-03-29T15:14:19.704Z,96978.91
2023-03-29T15:16:47.869Z,96975.44
2023-03-29T15:19:18.283Z,96969.63
2023-03-29T15:21:47.870Z,96969.94
2023-03-29T15:24:29.767Z,96965.25
2023-03-29T15:27:11.117Z,96960.72
2023-03-29T15:29:42.732Z,96962.16
2023-03-29T15:32:19.298Z,96954.25
2023-03-29T15:34:46.056Z,96949.53
2023-03-29T15:37:12.959Z,96953.63
2023-03-29T15:39:44.091Z,96949.34
2023-03-29T15:42:11.194Z,96947.97
2023-03-29T15:44:38.760Z,96948.88
2023-03-29T15:47:12.087Z,96954.03
2023-03-29T15:49:39.238Z,96945.09
2023-03-29T15:52:06.066Z,96936.91
2023-03-29T15:54:33.658Z,96942.09
2023-03-29T15:57:04.226Z,96941.44
2023-03-29T15:59:31.602Z,96942.63
2023-03-29T16:01:58.833Z,96947.09
2023-03-29T16:04:26.221Z,96945.91
2023-03-29T16:06:55.248Z,96951.72
2023-03-29T16:09:23.309Z,96944.28
2023-03-29T16:11:49.812Z,96948.69
2023-03-29T16:14:20.519Z,96948.69
2023-03-29T16:16:47.117Z,96946.59
2023-03-29T16:19:13.903Z,96949.84
2023-03-29T16:21:40.601Z,96951.50
2023-03-29T16:24:13.493Z,96952.50
2023-03-29T16:26:39.899Z,96947.16
2023-03-29T16:29:06.396Z,96941.75
2023-03-29T16:31:32.806Z,96944.72
2023-03-29T16:33:59.457Z,96939.75
2023-03-29T16:36:26.343Z,96943.50
2023-03-29T16:38:53.759Z,96931.81
2023-03-29T16:41:20.204Z,96927.38
2023-03-29T16:43:46.584Z,96920.25
2023-03-29T16:46:13.116Z,96919.88
2023-03-29T16:48:39.963Z,96932.72
2023-03-29T16:51:07.972Z,96928.25
2023-03-29T16:53:34.781Z,96919.03
2023-03-29T16:56:02.661Z,96928.75
2023-03-29T16:58:29.347Z,96914.41
2023-03-29T17:00:57.077Z,96921.47
2023-03-29T17:03:23.860Z,96918.84
2023-03-29T17:05:52.922Z,96925.53
2023-03-29T17:08:21.192Z,96925.59
2023-03-29T17:10:53.386Z,96920.59
2023-03-29T17:13:21.173Z,96918.50
2023-03-29T17:15:48.716Z,96916.44
2023-03-29T17:18:15.238Z,96910.66
2023-03-29T17:20:41.670Z,96906.00
2023-03-29T17:23:08.848Z,96913.09
2023-03-29T17:25:35.552Z,96912.78
2023-03-29T17:28:02.052Z,96902.84
2023-03-29T17:30:29.242Z,96904.56
2023-03-29T17:32:56.038Z,96891.34
2023-03-29T17:35:22.507Z,96881.84
2023-03-29T17:37:49.136Z,96891.50
2023-03-29T17:40:15.621Z,96898.97
2023-03-29T17:42:46.334Z,96897.97
2023-03-29T17:45:12.817Z,96897.22
2023-03-29T17:47:39.395Z,96901.22
2023-03-29T17:50:07.720Z,96903.88
2023-03-29T17:52:34.333Z,96898.63
2023-03-29T17:55:00.825Z,96903.69
2023-03-29T17:57:27.515Z,96897.56
2023-03-29T17:59:53.949Z,96896.25
2023-03-29T18:02:22.902Z,96897.31
2023-03-29T18:04:50.478Z,96893.31
2023-03-29T18:07:17.384Z,96898.66
2023-03-29T18:09:43.954Z,96893.88
2023-03-29T18:12:10.397Z,96898.13
2023-03-29T18:14:37.034Z,96904.00
2023-03-29T18:17:04.125Z,96910.09
2023-03-29T18:19:30.849Z,96905.06
2023-03-29T18:21:57.593Z,96906.38
2023-03-29T18:24:24.136Z,96903.47
2023-03-29T18:26:50.922Z,96906.63
2023-03-29T18:29:17.362Z,96902.66
2023-03-29T18:31:45.788Z,96907.19
2023-03-29T18:34:12.359Z,96910.88
2023-03-29T18:36:38.795Z,96910.34
2023-03-29T18:39:05.831Z,96914.03
2023-03-29T18:41:34.404Z,96911.91
2023-03-29T18:44:00.935Z,96911.38
2023-03-29T18:46:31.107Z,96915.34
2023-03-29T18:48:58.667Z,96907.63
2023-03-29T18:51:28.757Z,96905.03
2023-03-29T18:53:56.257Z,96900.22
2023-03-29T18:56:23.161Z,96901.03
2023-03-29T18:58:50.134Z,96901.81
2023-03-29T19:01:16.595Z,96885.31
2023-03-29T19:03:43.286Z,96875.56
2023-03-29T19:06:10.103Z,96873.69
2023-03-29T19:08:39.563Z,96872.66
2023-03-29T19:11:08.342Z,96873.13
2023-03-29T19:13:35.786Z,96878.44
2023-03-29T19:16:03.731Z,96881.66
2023-03-29T19:18:30.654Z,96898.13
2023-03-29T19:20:57.034Z,96899.72
2023-03-29T19:23:26.979Z,96904.47
2023-03-29T19:25:57.982Z,96894.91
2023-03-29T19:28:24.837Z,96884.84
2023-03-29T19:30:51.809Z,96896.25
2023-03-29T19:33:20.007Z,96892.56
2023-03-29T19:35:46.892Z,96892.81
2023-03-29T19:38:13.502Z,96882.75
2023-03-29T19:40:40.223Z,96882.22
2023-03-29T19:43:06.837Z,96877.97
2023-03-29T19:45:33.311Z,96867.88
2023-03-29T19:48:03.285Z,96877.69
2023-03-29T19:50:31.618Z,96877.97
2023-03-29T19:52:58.486Z,96873.72
2023-03-29T19:55:25.354Z,96863.38
2023-03-29T19:57:52.303Z,96854.34
2023-03-29T20:00:19.062Z,96856.75
2023-03-29T20:02:45.479Z,96856.22
2023-03-29T20:05:12.504Z,96867.63
2023-03-29T20:07:38.946Z,96865.50
2023-03-29T20:10:05.925Z,96849.31
2023-03-29T20:12:32.360Z,96850.38
2023-03-29T20:14:58.751Z,96851.94
2023-03-29T20:17:25.181Z,96844.00
2023-03-29T20:19:53.899Z,96846.13
2023-03-29T20:22:20.580Z,96841.34
2023-03-29T20:24:47.050Z,96832.34
2023-03-29T20:27:13.832Z,96833.38
2023-03-29T20:29:40.365Z,96822.47
2023-03-29T20:32:07.004Z,96833.84
2023-03-29T20:34:33.673Z,96821.59
2023-03-29T20:37:02.022Z,96832.69
2023-03-29T20:39:29.733Z,96816.16
2023-03-29T20:41:56.126Z,96816.66
2023-03-29T20:44:26.136Z,96819.28
2023-03-29T20:47:08.271Z,96812.06
2023-03-29T20:49:39.447Z,96816.63
2023-03-29T20:52:09.363Z,96815.50
2023-03-29T20:54:36.993Z,96816.34
2023-03-29T20:57:07.724Z,96812.31
2023-03-29T20:59:38.075Z,96808.59
2023-03-29T21:02:04.630Z,96810.19
2023-03-29T21:04:31.108Z,96805.94
2023-03-29T21:06:57.603Z,96806.97
2023-03-29T21:09:25.416Z,96812.25
2023-03-29T21:11:52.545Z,96803.19
2023-03-29T21:14:22.431Z,96808.47
2023-03-29T21:16:49.673Z,96802.59
2023-03-29T21:19:17.291Z,96792.47
2023-03-29T21:21:44.936Z,96793.75
2023-03-29T21:24:13.414Z,96790.75
2023-03-29T21:26:41.113Z,96796.59
2023-03-29T21:29:07.881Z,96787.50
2023-03-29T21:31:34.411Z,96782.75
2023-03-29T21:34:01.012Z,96784.59
2023-03-29T21:36:27.569Z,96775.84
2023-03-29T21:38:54.188Z,96779.09
2023-03-29T21:41:20.768Z,96782.78
2023-03-29T21:43:47.896Z,96778.56
2023-03-29T21:46:14.849Z,96769.56
2023-03-29T21:48:42.114Z,96781.00
2023-03-29T21:51:09.206Z,96771.94
2023-03-29T21:53:38.808Z,96768.88
2023-03-29T21:56:06.612Z,96762.00
2023-03-29T21:58:33.098Z,96771.59
2023-03-29T22:00:59.644Z,96778.97
2023-03-29T22:03:26.284Z,96764.72
2023-03-29T22:06:01.212Z,96762.66
2023-03-29T22:08:28.604Z,96766.63
2023-03-29T22:10:56.734Z,96762.44
2023-03-29T22:13:28.328Z,96766.09
2023-03-29T22:15:59.114Z,96759.53
2023-03-29T22:18:27.951Z,96765.81
2023-03-29T22:20:54.500Z,96760.66
2023-03-29T22:23:21.027Z,96760.94
2023-03-29T22:25:47.474Z,96764.38
2023-03-29T22:28:14.270Z,96762.53
2023-03-29T22:30:41.004Z,96759.53
2023-03-29T22:33:07.526Z,96756.63
2023-03-29T22:35:35.396Z,96758.44
2023-03-29T22:38:01.868Z,96754.50
2023-03-29T22:40:28.321Z,96751.78
2023-03-29T22:42:54.672Z,96755.28
2023-03-29T22:45:21.186Z,96759.34
2023-03-29T22:47:47.631Z,96749.97
2023-03-29T22:50:14.167Z,96750.19
2023-03-29T22:52:40.778Z,96752.09
2023-03-29T22:55:07.462Z,96745.97
2023-03-29T22:57:33.895Z,96751.47
2023-03-29T23:00:00.581Z,96748.16
2023-03-29T23:02:27.369Z,96746.56
2023-03-29T23:04:53.781Z,96749.69
2023-03-29T23:07:20.215Z,96746.63
2023-03-29T23:09:46.702Z,96749.94
2023-03-29T23:12:13.145Z,96754.13
2023-03-29T23:14:42.587Z,96756.69
2023-03-29T23:17:10.176Z,96755.19
2023-03-29T23:19:37.848Z,96748.59
2023-03-29T23:22:04.361Z,96754.00
2023-03-29T23:24:30.928Z,96751.09
2023-03-29T23:26:57.542Z,96752.97
2023-03-29T23:29:26.290Z,96761.88
2023-03-29T23:31:53.795Z,96753.34
2023-03-29T23:34:20.496Z,96760.22
2023-03-29T23:36:46.968Z,96751.06
2023-03-29T23:39:14.247Z,96746.38
2023-03-29T23:41:41.008Z,96753.50
2023-03-29T23:44:07.790Z,96760.63
2023-03-29T23:46:34.569Z,96770.31
2023-03-29T23:49:01.054Z,96758.03
2023-03-29T23:51:28.444Z,96763.78
2023-03-29T23:53:55.695Z,96762.25
2023-03-29T23:56:22.832Z,96748.50
2023-03-29T23:58:49.951Z,96739.97
